createdAt,value
2023-01-22T00:00:08.522Z,0.20
2023-01-22T00:02:36.244Z,0.10
2023-01-22T00:05:04.051Z,0.20
2023-01-22T00:07:30.789Z,0.30
2023-01-22T00:10:00.015Z,0.20
2023-01-22T00:12:26.952Z,0.20
2023-01-22T00:14:53.657Z,0.10
2023-01-22T00:17:22.647Z,0.10
2023-01-22T00:19:49.289Z,0.10
2023-01-22T00:22:16.236Z,0.10
2023-01-22T00:24:43.532Z,0.10
2023-01-22T00:27:10.264Z,0.00
2023-01-22T00:29:36.893Z,0.00
2023-01-22T00:32:03.573Z,0.10
2023-01-22T00:34:30.521Z,0.00
2023-01-22T00:36:59.549Z,0.10
2023-01-22T00:39:26.186Z,0.10
2023-01-22T00:41:52.861Z,0.10
2023-01-22T00:44:21.916Z,0.10
2023-01-22T00:46:52.755Z,0.10
2023-01-22T00:49:21.660Z,0.10
2023-01-22T00:51:48.264Z,0.10
2023-01-22T00:54:17.318Z,0.10
2023-01-22T00:56:43.905Z,0.10
2023-01-22T00:59:10.664Z,0.10
2023-01-22T01:01:39.909Z,0.10
2023-01-22T01:04:06.650Z,0.10
2023-01-22T01:06:33.458Z,0.00
2023-01-22T01:09:00.113Z,0.10
2023-01-22T01:11:26.771Z,0.10
2023-01-22T01:13:55.817Z,0.10
2023-01-22T01:16:29.691Z,0.10
2023-01-22T01:19:10.209Z,0.10
2023-01-22T01:21:36.947Z,0.10
2023-01-22T01:24:03.720Z,0.10
2023-01-22T01:26:33.466Z,0.10
2023-01-22T01:29:00.045Z,0.10
2023-01-22T01:31:29.011Z,0.20
2023-01-22T01:33:55.927Z,0.10
2023-01-22T01:36:46.263Z,0.20
2023-01-22T01:39:10.886Z,0.20
2023-01-22T01:41:37.521Z,0.20
2023-01-22T01:44:06.849Z,0.20
2023-01-22T01:46:35.849Z,0.20
2023-01-22T01:49:05.325Z,0.20
2023-01-22T01:51:34.160Z,0.20
2023-01-22T01:54:01.096Z,0.20
2023-01-22T01:56:32.366Z,0.20
2023-01-22T01:59:01.682Z,0.30
2023-01-22T02:01:28.405Z,0.30
2023-01-22T02:03:55.424Z,0.30
2023-01-22T02:06:22.070Z,0.30
2023-01-22T02:08:49.259Z,0.30
2023-01-22T02:11:16.645Z,0.30
2023-01-22T02:13:45.585Z,0.30
2023-01-22T02:16:12.335Z,0.30
2023-01-22T02:18:39.023Z,0.30
2023-01-22T02:21:27.972Z,0.30
2023-01-22T02:23:54.563Z,0.40
2023-01-22T02:26:21.251Z,0.40
2023-01-22T02:28:50.281Z,0.30
2023-01-22T02:31:19.387Z,0.30
2023-01-22T02:33:46.115Z,0.30
2023-01-22T02:36:16.196Z,0.40
2023-01-22T02:38:42.787Z,0.40
2023-01-22T02:41:09.689Z,0.50
2023-01-22T02:43:40.929Z,0.60
2023-01-22T02:46:07.605Z,0.60
2023-01-22T02:48:34.314Z,0.70
2023-01-22T02:51:01.039Z,0.60
2023-01-22T02:53:27.676Z,0.60
2023-01-22T02:55:54.387Z,0.60
2023-01-22T02:58:21.071Z,0.50
2023-01-22T03:00:47.848Z,0.50
2023-01-22T03:03:19.927Z,0.40
2023-01-22T03:05:50.786Z,0.50
2023-01-22T03:08:19.991Z,0.60
2023-01-22T03:10:46.690Z,0.70
2023-01-22T03:13:32.008Z,0.70
2023-01-22T03:16:21.830Z,0.80
2023-01-22T03:19:07.163Z,0.60
2023-01-22T03:21:33.714Z,0.60
2023-01-22T03:24:00.456Z,0.50
2023-01-22T03:26:28.853Z,0.50
2023-01-22T03:28:55.464Z,0.40
2023-01-22T03:31:22.155Z,0.30
2023-01-22T03:33:51.208Z,0.40
2023-01-22T03:36:20.381Z,0.30
2023-01-22T03:38:49.352Z,0.30
2023-01-22T03:41:16.658Z,0.30
2023-01-22T03:43:43.659Z,0.30
2023-01-22T03:46:11.985Z,0.30
2023-01-22T03:48:39.058Z,0.30
2023-01-22T03:51:15.396Z,0.30
2023-01-22T03:53:45.192Z,0.30
2023-01-22T03:56:13.078Z,0.30
2023-01-22T03:58:39.659Z,0.30
2023-01-22T04:01:07.884Z,0.30
2023-01-22T04:03:34.758Z,0.30
2023-01-22T04:06:01.698Z,0.30
2023-01-22T04:08:29.352Z,0.30
2023-01-22T04:10:56.416Z,0.40
2023-01-22T04:13:23.678Z,0.40
2023-01-22T04:15:50.289Z,0.50
2023-01-22T04:18:17.066Z,0.60
2023-01-22T04:20:43.950Z,0.70
2023-01-22T04:23:10.584Z,0.60
2023-01-22T04:25:37.205Z,0.60
2023-01-22T04:28:04.201Z,0.60
2023-01-22T04:30:30.984Z,0.60
2023-01-22T04:33:00.818Z,0.60
2023-01-22T04:35:27.477Z,0.50
2023-01-22T04:37:56.902Z,0.50
2023-01-22T04:40:23.626Z,0.60
2023-01-22T04:42:50.301Z,0.60
2023-01-22T04:45:19.441Z,0.60
2023-01-22T04:47:47.337Z,0.60
2023-01-22T04:50:28.054Z,0.60
2023-01-22T04:52:55.209Z,0.50
2023-01-22T04:55:21.897Z,0.50
2023-01-22T04:57:48.837Z,0.50
2023-01-22T05:00:18.488Z,0.60
2023-01-22T05:02:45.290Z,0.60
2023-01-22T05:05:11.855Z,0.60
2023-01-22T05:07:38.439Z,0.60
2023-01-22T05:10:07.496Z,0.60
2023-01-22T05:12:34.209Z,0.60
2023-01-22T05:15:00.828Z,0.60
2023-01-22T05:17:27.464Z,0.50
2023-01-22T05:19:56.262Z,0.50
2023-01-22T05:22:22.939Z,0.50
2023-01-22T05:24:51.975Z,0.50
2023-01-22T05:27:23.538Z,0.50
2023-01-22T05:29:52.599Z,0.60
2023-01-22T05:32:19.191Z,0.60
2023-01-22T05:34:45.869Z,0.60
2023-01-22T05:37:12.540Z,0.70
2023-01-22T05:39:39.149Z,0.70
2023-01-22T05:42:05.794Z,0.70
2023-01-22T05:44:33.564Z,0.70
2023-01-22T05:47:00.254Z,0.70
2023-01-22T05:49:26.853Z,0.60
2023-01-22T05:51:53.462Z,0.60
2023-01-22T05:54:20.136Z,0.60
2023-01-22T05:56:46.721Z,0.60
2023-01-22T05:59:18.277Z,0.60
2023-01-22T06:01:47.364Z,0.70
2023-01-22T06:04:14.018Z,0.70
2023-01-22T06:06:40.575Z,0.70
2023-01-22T06:09:07.240Z,0.70
2023-01-22T06:11:36.325Z,0.70
2023-01-22T06:14:03.243Z,0.70
2023-01-22T06:16:29.904Z,0.70
2023-01-22T06:18:56.457Z,0.70
2023-01-22T06:21:23.104Z,0.70
2023-01-22T06:23:49.676Z,0.70
2023-01-22T06:26:16.360Z,0.70
2023-01-22T06:28:42.940Z,0.70
2023-01-22T06:31:09.674Z,0.70
2023-01-22T06:33:37.300Z,0.70
2023-01-22T06:36:06.659Z,0.70
2023-01-22T06:38:33.344Z,0.70
2023-01-22T06:41:00.359Z,0.70
2023-01-22T06:43:27.570Z,0.70
2023-01-22T06:45:54.854Z,0.70
2023-01-22T06:48:21.470Z,0.70
2023-01-22T06:50:48.149Z,0.60
2023-01-22T06:53:14.853Z,0.70
2023-01-22T06:55:43.868Z,0.70
2023-01-22T06:58:10.549Z,0.60
2023-01-22T07:00:37.563Z,0.60
2023-01-22T07:03:10.197Z,0.70
2023-01-22T07:05:36.864Z,0.70
2023-01-22T07:08:06.084Z,0.70
2023-01-22T07:10:35.322Z,0.60
2023-01-22T07:13:04.150Z,0.50
2023-01-22T07:15:33.202Z,0.50
2023-01-22T07:18:02.090Z,0.50
2023-01-22T07:20:31.079Z,0.50
2023-01-22T07:22:59.213Z,0.50
2023-01-22T07:25:27.389Z,0.60
2023-01-22T07:28:01.079Z,0.70
2023-01-22T07:30:28.159Z,0.70
2023-01-22T07:32:57.799Z,0.80
2023-01-22T07:35:26.636Z,0.70
2023-01-22T07:37:53.730Z,0.80
2023-01-22T07:40:20.654Z,0.80
2023-01-22T07:42:47.380Z,0.80
2023-01-22T07:45:14.028Z,0.80
2023-01-22T07:47:40.648Z,0.80
2023-01-22T07:50:10.150Z,0.80
2023-01-22T07:52:36.750Z,0.80
2023-01-22T07:55:03.510Z,0.80
2023-01-22T07:57:30.136Z,0.80
2023-01-22T07:59:56.734Z,0.80
2023-01-22T08:02:23.340Z,0.90
2023-01-22T08:04:52.203Z,0.90
2023-01-22T08:07:19.269Z,0.90
2023-01-22T08:09:45.973Z,0.90
2023-01-22T08:12:12.556Z,0.90
2023-01-22T08:14:39.331Z,1.10
2023-01-22T08:17:06.026Z,1.20
2023-01-22T08:19:32.694Z,1.30
2023-01-22T08:22:00.533Z,1.40
2023-01-22T08:24:27.374Z,1.40
2023-01-22T08:26:56.387Z,1.40
2023-01-22T08:29:23.002Z,1.50
2023-01-22T08:31:53.211Z,1.50
2023-01-22T08:34:20.661Z,1.50
2023-01-22T08:36:49.721Z,1.60
2023-01-22T08:39:16.368Z,1.70
2023-01-22T08:41:43.063Z,1.70
2023-01-22T08:44:12.071Z,1.70
2023-01-22T08:46:41.183Z,1.70
2023-01-22T08:49:07.861Z,1.70
2023-01-22T08:51:34.854Z,1.60
2023-01-22T08:54:01.668Z,1.60
2023-01-22T08:56:28.379Z,1.70
2023-01-22T08:59:00.068Z,1.90
2023-01-22T09:01:27.158Z,1.90
2023-01-22T09:03:53.818Z,2.00
2023-01-22T09:06:23.226Z,2.10
2023-01-22T09:08:49.871Z,2.20
2023-01-22T09:11:16.845Z,2.30
2023-01-22T09:13:43.540Z,2.30
2023-01-22T09:16:10.988Z,2.40
2023-01-22T09:18:38.928Z,2.50
2023-01-22T09:21:06.075Z,2.40
2023-01-22T09:23:32.714Z,2.40
2023-01-22T09:26:00.545Z,2.50
2023-01-22T09:28:27.257Z,2.50
2023-01-22T09:30:53.898Z,2.50
2023-01-22T09:33:20.571Z,2.60
2023-01-22T09:35:47.198Z,2.60
2023-01-22T09:38:14.179Z,2.70
2023-01-22T09:40:54.881Z,2.70
2023-01-22T09:43:25.354Z,2.70
2023-01-22T09:45:54.956Z,2.60
2023-01-22T09:48:22.798Z,2.70
2023-01-22T09:50:49.884Z,2.70
2023-01-22T09:53:19.914Z,2.70
2023-01-22T09:55:47.613Z,2.80
2023-01-22T09:58:15.675Z,2.80
2023-01-22T10:00:55.867Z,2.90
2023-01-22T10:03:26.482Z,2.90
2023-01-22T10:05:59.725Z,2.80
2023-01-22T10:08:29.665Z,2.70
2023-01-22T10:10:57.950Z,2.70
2023-01-22T10:13:40.676Z,2.70
2023-01-22T10:16:09.995Z,2.80
2023-01-22T10:18:42.374Z,2.80
2023-01-22T10:21:20.559Z,2.80
2023-01-22T10:23:49.105Z,2.90
2023-01-22T10:26:25.011Z,2.90
2023-01-22T10:28:56.600Z,3.00
2023-01-22T10:31:27.434Z,3.20
2023-01-22T10:34:12.184Z,3.30
2023-01-22T10:36:38.832Z,3.30
2023-01-22T10:39:06.698Z,3.30
2023-01-22T10:41:33.375Z,3.30
2023-01-22T10:44:18.247Z,3.20
2023-01-22T10:46:46.522Z,3.10
2023-01-22T10:49:20.873Z,3.10
2023-01-22T10:51:53.094Z,3.00
2023-01-22T10:54:21.483Z,3.00
2023-01-22T10:56:48.420Z,3.10
2023-01-22T10:59:20.279Z,3.00
2023-01-22T11:01:48.204Z,3.00
2023-01-22T11:04:20.464Z,3.10
2023-01-22T11:06:55.088Z,3.10
2023-01-22T11:09:30.214Z,3.00
2023-01-22T11:12:09.870Z,3.10
2023-01-22T11:14:37.306Z,3.20
2023-01-22T11:17:24.222Z,3.10
2023-01-22T11:19:58.729Z,3.00
2023-01-22T11:22:27.673Z,2.80
2023-01-22T11:24:54.416Z,2.70
2023-01-22T11:27:26.918Z,2.70
2023-01-22T11:30:12.017Z,2.60
2023-01-22T11:32:53.303Z,2.60
2023-01-22T11:35:23.114Z,2.40
2023-01-22T11:38:10.831Z,2.40
2023-01-22T11:40:57.997Z,2.60
2023-01-22T11:44:00.197Z,2.70
2023-01-22T11:46:32.661Z,2.80
2023-01-22T11:49:02.908Z,2.80
2023-01-22T11:51:48.499Z,2.90
2023-01-22T11:54:20.760Z,2.90
2023-01-22T11:56:56.665Z,2.80
2023-01-22T11:59:32.419Z,2.80
2023-01-22T12:02:05.210Z,2.80
2023-01-22T12:04:44.027Z,2.80
2023-01-22T12:07:29.443Z,2.80
2023-01-22T12:10:11.542Z,3.00
2023-01-22T12:12:47.853Z,3.10
2023-01-22T12:15:20.415Z,3.10
2023-01-22T12:18:05.835Z,3.00
2023-01-22T12:20:32.508Z,3.00
2023-01-22T12:23:08.691Z,3.10
2023-01-22T12:25:43.727Z,3.10
2023-01-22T12:28:14.137Z,3.00
2023-01-22T12:30:46.956Z,3.10
2023-01-22T12:33:15.696Z,3.20
2023-01-22T12:35:42.530Z,3.10
2023-01-22T12:38:21.079Z,3.10
2023-01-22T12:40:59.145Z,3.10
2023-01-22T12:43:37.247Z,3.10
2023-01-22T12:46:09.817Z,3.00
2023-01-22T12:48:50.769Z,2.90
2023-01-22T12:51:46.903Z,2.90
2023-01-22T12:54:22.575Z,2.90
2023-01-22T12:56:50.098Z,2.90
2023-01-22T12:59:45.897Z,2.90
2023-01-22T13:02:39.339Z,3.00
2023-01-22T13:05:13.111Z,2.90
2023-01-22T13:07:41.090Z,2.90
2023-01-22T13:10:20.358Z,2.80
2023-01-22T13:12:49.664Z,2.90
2023-01-22T13:15:30.702Z,2.90
2023-01-22T13:18:06.691Z,2.80
2023-01-22T13:20:35.806Z,2.80
2023-01-22T13:23:04.916Z,2.80
2023-01-22T13:25:32.700Z,2.80
2023-01-22T13:28:02.972Z,2.80
2023-01-22T13:30:34.661Z,2.80
2023-01-22T13:33:12.090Z,2.80
2023-01-22T13:35:46.186Z,2.80
2023-01-22T13:38:32.745Z,2.90
2023-01-22T13:41:01.578Z,2.90
2023-01-22T13:43:28.439Z,2.80
2023-01-22T13:45:58.042Z,2.80
2023-01-22T13:48:25.822Z,2.80
2023-01-22T13:50:54.645Z,2.80
2023-01-22T13:53:31.856Z,2.80
2023-01-22T13:56:01.417Z,2.80
2023-01-22T13:58:48.876Z,2.80
2023-01-22T14:01:32.925Z,2.80
2023-01-22T14:04:04.098Z,2.70
2023-01-22T14:06:30.794Z,2.70
2023-01-22T14:08:58.141Z,2.60
2023-01-22T14:11:24.804Z,2.60
2023-01-22T14:13:54.497Z,2.60
2023-01-22T14:16:23.289Z,2.60
2023-01-22T14:18:49.982Z,2.60
2023-01-22T14:21:19.111Z,2.50
2023-01-22T14:23:46.300Z,2.50
2023-01-22T14:26:13.069Z,2.50
2023-01-22T14:28:42.181Z,2.50
2023-01-22T14:31:08.877Z,2.50
2023-01-22T14:33:35.582Z,2.50
2023-01-22T14:36:04.556Z,2.40
2023-01-22T14:38:33.658Z,2.40
2023-01-22T14:41:03.157Z,2.40
2023-01-22T14:43:29.831Z,2.40
2023-01-22T14:45:58.885Z,2.40
2023-01-22T14:48:28.016Z,2.40
2023-01-22T14:50:54.666Z,2.40
2023-01-22T14:53:21.344Z,2.40
2023-01-22T14:55:50.484Z,2.40
2023-01-22T14:58:17.117Z,2.60
2023-01-22T15:00:44.511Z,2.60
2023-01-22T15:03:11.190Z,2.50
2023-01-22T15:05:40.859Z,2.50
2023-01-22T15:08:07.518Z,2.50
2023-01-22T15:10:34.211Z,2.40
2023-01-22T15:13:03.342Z,2.40
2023-01-22T15:15:30.035Z,2.40
2023-01-22T15:17:57.583Z,2.40
2023-01-22T15:20:24.520Z,2.30
2023-01-22T15:22:53.481Z,2.30
2023-01-22T15:25:22.940Z,2.30
2023-01-22T15:27:49.563Z,2.30
2023-01-22T15:30:16.426Z,2.30
2023-01-22T15:32:43.201Z,2.30
2023-01-22T15:35:12.580Z,2.30
2023-01-22T15:37:41.474Z,2.30
2023-01-22T15:40:10.025Z,2.30
2023-01-22T15:42:36.707Z,2.30
2023-01-22T15:45:06.645Z,2.30
2023-01-22T15:47:33.236Z,2.30
2023-01-22T15:49:59.833Z,2.20
2023-01-22T15:52:26.432Z,2.20
2023-01-22T15:54:53.748Z,2.20
2023-01-22T15:57:20.544Z,2.20
2023-01-22T15:59:47.216Z,2.10
2023-01-22T16:02:16.227Z,2.10
2023-01-22T16:04:42.886Z,2.10
2023-01-22T16:07:11.683Z,2.00
2023-01-22T16:09:38.842Z,2.00
2023-01-22T16:12:05.687Z,2.00
2023-01-22T16:14:32.401Z,2.10
2023-01-22T16:16:59.116Z,2.00
2023-01-22T16:19:25.788Z,2.00
2023-01-22T16:21:55.459Z,2.00
2023-01-22T16:24:22.211Z,2.00
2023-01-22T16:26:48.936Z,2.00
2023-01-22T16:29:15.630Z,2.00
2023-01-22T16:31:42.265Z,2.00
2023-01-22T16:34:13.172Z,2.10
2023-01-22T16:36:40.244Z,2.10
2023-01-22T16:39:09.406Z,2.00
2023-01-22T16:41:36.984Z,2.00
2023-01-22T16:44:12.187Z,2.00
2023-01-22T16:46:40.127Z,2.10
2023-01-22T16:49:07.973Z,2.00
2023-01-22T16:51:36.241Z,2.00
2023-01-22T16:54:03.460Z,2.00
2023-01-22T16:56:32.711Z,2.00
2023-01-22T16:58:59.559Z,1.90
2023-01-22T17:01:29.845Z,1.90
2023-01-22T17:03:59.172Z,2.00
2023-01-22T17:06:29.270Z,2.00
2023-01-22T17:08:56.065Z,2.00
2023-01-22T17:11:22.819Z,2.10
2023-01-22T17:13:49.817Z,2.10
2023-01-22T17:16:26.696Z,2.10
2023-01-22T17:18:53.833Z,2.10
2023-01-22T17:21:20.596Z,2.10
2023-01-22T17:23:49.606Z,2.00
2023-01-22T17:26:18.874Z,2.00
2023-01-22T17:28:48.022Z,2.00
2023-01-22T17:31:19.041Z,2.00
2023-01-22T17:33:46.639Z,2.00
2023-01-22T17:36:18.836Z,2.00
2023-01-22T17:38:45.519Z,2.00
2023-01-22T17:41:14.512Z,2.00
2023-01-22T17:43:41.723Z,2.00
2023-01-22T17:46:09.685Z,2.00
2023-01-22T17:48:37.065Z,2.10
2023-01-22T17:51:07.293Z,2.10
2023-01-22T17:53:38.713Z,2.00
2023-01-22T17:56:15.906Z,2.00
2023-01-22T17:58:55.164Z,2.00
2023-01-22T18:01:24.835Z,1.90
2023-01-22T18:03:53.949Z,1.90
2023-01-22T18:06:20.694Z,1.90
2023-01-22T18:08:49.422Z,1.90
2023-01-22T18:11:17.606Z,1.90
2023-01-22T18:13:44.701Z,1.80
2023-01-22T18:16:13.790Z,1.80
2023-01-22T18:18:40.873Z,1.80
2023-01-22T18:21:09.736Z,1.70
2023-01-22T18:23:38.491Z,1.70
2023-01-22T18:26:05.897Z,1.70
2023-01-22T18:28:33.248Z,1.70
2023-01-22T18:31:09.279Z,1.80
2023-01-22T18:33:39.037Z,1.80
2023-01-22T18:36:12.287Z,1.90
2023-01-22T18:38:41.626Z,1.90
2023-01-22T18:41:15.964Z,1.90
2023-01-22T18:43:42.830Z,2.00
2023-01-22T18:46:10.878Z,2.10
2023-01-22T18:48:38.243Z,2.00
2023-01-22T18:51:05.969Z,2.00
2023-01-22T18:53:35.360Z,1.90
2023-01-22T18:56:02.762Z,1.80
2023-01-22T18:58:36.079Z,1.80
2023-01-22T19:01:11.705Z,1.70
2023-01-22T19:03:42.436Z,1.70
2023-01-22T19:06:13.905Z,1.70
2023-01-22T19:08:44.524Z,1.70
2023-01-22T19:11:12.305Z,1.70
2023-01-22T19:13:44.851Z,1.70
2023-01-22T19:16:15.565Z,1.70
2023-01-22T19:18:43.936Z,1.70
2023-01-22T19:21:12.281Z,1.60
2023-01-22T19:23:38.949Z,1.60
2023-01-22T19:26:06.528Z,1.50
2023-01-22T19:28:33.185Z,1.50
2023-01-22T19:30:59.927Z,1.50
2023-01-22T19:33:29.091Z,1.50
2023-01-22T19:35:56.022Z,1.50
2023-01-22T19:38:22.675Z,1.50
2023-01-22T19:40:49.346Z,1.40
2023-01-22T19:43:16.029Z,1.50
2023-01-22T19:45:42.662Z,1.50
2023-01-22T19:48:09.455Z,1.50
2023-01-22T19:50:36.651Z,1.50
2023-01-22T19:53:03.458Z,1.60
2023-01-22T19:55:34.618Z,1.70
2023-01-22T19:58:03.601Z,1.70
2023-01-22T20:00:33.998Z,1.60
2023-01-22T20:03:07.680Z,1.50
2023-01-22T20:05:41.060Z,1.50
2023-01-22T20:08:19.674Z,1.50
2023-01-22T20:10:51.201Z,1.50
2023-01-22T20:13:17.939Z,1.50
2023-01-22T20:15:47.155Z,1.50
2023-01-22T20:18:13.761Z,1.50
2023-01-22T20:20:42.781Z,1.60
2023-01-22T20:23:09.403Z,1.60
2023-01-22T20:25:38.016Z,1.50
2023-01-22T20:28:07.230Z,1.60
2023-01-22T20:30:33.877Z,1.60
2023-01-22T20:33:02.663Z,1.60
2023-01-22T20:35:29.297Z,1.50
2023-01-22T20:37:55.914Z,1.60
2023-01-22T20:40:25.442Z,1.60
2023-01-22T20:42:54.534Z,1.50
2023-01-22T20:45:21.467Z,1.50
2023-01-22T20:47:50.813Z,1.50
2023-01-22T20:50:19.791Z,1.50
2023-01-22T20:52:52.135Z,1.40
2023-01-22T20:55:21.136Z,1.50
2023-01-22T20:57:52.723Z,1.50
2023-01-22T21:00:19.436Z,1.50
2023-01-22T21:02:50.969Z,1.50
2023-01-22T21:05:46.806Z,1.50
2023-01-22T21:08:15.637Z,1.50
2023-01-22T21:11:09.140Z,1.50
2023-01-22T21:13:48.244Z,1.40
2023-01-22T21:16:37.652Z,1.40
2023-01-22T21:19:05.579Z,1.30
2023-01-22T21:21:35.882Z,1.30
2023-01-22T21:24:03.079Z,1.30
2023-01-22T21:26:30.633Z,1.20
2023-01-22T21:28:58.586Z,1.10
2023-01-22T21:31:25.976Z,1.10
2023-01-22T21:34:02.179Z,1.00
2023-01-22T21:36:30.045Z,1.00
2023-01-22T21:38:56.789Z,0.90
2023-01-22T21:41:23.363Z,1.00
2023-01-22T21:44:08.631Z,0.90
2023-01-22T21:46:38.157Z,1.00
2023-01-22T21:49:21.110Z,0.90
2023-01-22T21:51:52.086Z,0.90
2023-01-22T21:54:24.564Z,1.00
2023-01-22T21:56:51.588Z,1.20
2023-01-22T21:59:20.898Z,1.20
2023-01-22T22:01:50.230Z,1.20
2023-01-22T22:04:19.273Z,1.10
2023-01-22T22:06:45.956Z,1.10
2023-01-22T22:09:16.944Z,1.10
2023-01-22T22:11:43.741Z,1.10
2023-01-22T22:14:15.807Z,1.10
2023-01-22T22:16:45.946Z,1.10
2023-01-22T22:19:15.024Z,1.10
2023-01-22T22:21:41.725Z,1.10
2023-01-22T22:24:10.856Z,1.10
2023-01-22T22:26:39.952Z,1.10
2023-01-22T22:29:07.165Z,1.10
2023-01-22T22:31:36.243Z,1.10
2023-01-22T22:34:03.203Z,1.10
2023-01-22T22:36:30.583Z,1.10
2023-01-22T22:39:02.252Z,1.10
2023-01-22T22:41:30.344Z,1.00
2023-01-22T22:43:57.034Z,1.00
2023-01-22T22:46:25.013Z,1.00
2023-01-22T22:48:52.233Z,1.00
2023-01-22T22:51:23.076Z,1.00
2023-01-22T22:53:51.870Z,1.00
2023-01-22T22:56:18.632Z,1.00
2023-01-22T22:58:45.213Z,1.00
2023-01-22T23:01:16.822Z,1.00
2023-01-22T23:03:43.512Z,1.00
2023-01-22T23:06:11.978Z,1.20
2023-01-22T23:08:39.234Z,1.20
2023-01-22T23:11:07.318Z,1.20
2023-01-22T23:13:34.063Z,1.20
2023-01-22T23:16:05.045Z,1.30
2023-01-22T23:18:32.615Z,1.30
2023-01-22T23:21:03.328Z,1.30
2023-01-22T23:23:32.052Z,1.20
2023-01-22T23:25:58.746Z,1.20
2023-01-22T23:28:25.374Z,1.10
2023-01-22T23:30:52.232Z,1.00
2023-01-22T23:33:19.006Z,1.00
2023-01-22T23:35:45.801Z,1.00
2023-01-22T23:38:12.527Z,0.90
2023-01-22T23:40:39.169Z,0.90
2023-01-22T23:43:08.532Z,0.90
2023-01-22T23:45:38.179Z,0.90
2023-01-22T23:48:05.254Z,0.90
2023-01-22T23:50:34.239Z,0.80
2023-01-22T23:53:00.956Z,0.80
2023-01-22T23:55:27.628Z,0.80
2023-01-22T23:57:54.227Z,0.80
